Time;durP1;ratioP1;P1;durP2;ratioP2;P2;SDS_P1;SDS_P2;PMS_P1;PMS_P2;Temp;Humidity;BMP_temperature;BMP_pressure;BME280_temperature;BME280_humidity;BME280_pressure;Samples;Min_cycle;Max_cycle;Signal;HPM_P1;HPM_P2
2022/05/08 00:00:34;;;;;;;13.05;9.60;;;12.30;99.90;;;;;;5050624;28;20029;-73
2022/05/08 00:02:59;;;;;;;14.82;9.73;;;12.20;99.90;;;;;;5050976;28;20033;-73
2022/05/08 00:05:25;;;;;;;11.13;7.95;;;12.00;99.90;;;;;;5051642;28;20108;-73
2022/05/08 00:07:51;;;;;;;13.05;8.93;;;12.10;99.90;;;;;;5051746;28;20094;-74
2022/05/08 00:10:16;;;;;;;18.05;11.38;;;12.10;99.90;;;;;;5051010;28;20491;-73
2022/05/08 00:12:42;;;;;;;14.07;9.30;;;12.20;99.90;;;;;;5051706;28;20021;-73
2022/05/08 00:15:08;;;;;;;16.15;10.85;;;12.00;99.90;;;;;;5051097;28;20045;-73
2022/05/08 00:17:34;;;;;;;12.30;8.90;;;12.00;99.90;;;;;;5051997;28;20398;-73
2022/05/08 00:20:02;;;;;;;16.48;11.07;;;11.80;99.90;;;;;;5051316;28;20036;-73
2022/05/08 00:22:27;;;;;;;13.90;9.45;;;12.10;99.90;;;;;;5051805;28;20033;-73
2022/05/08 00:24:53;;;;;;;20.75;10.63;;;;;;;;;;5049300;28;20037;-73
2022/05/08 00:27:19;;;;;;;13.40;9.98;;;12.00;99.90;;;;;;5051102;28;20456;-73
2022/05/08 00:29:45;;;;;;;16.55;10.70;;;11.90;99.90;;;;;;5051451;28;20029;-73
2022/05/08 00:32:10;;;;;;;22.67;13.13;;;11.90;99.90;;;;;;5050916;28;20025;-73
2022/05/08 00:34:36;;;;;;;14.38;11.02;;;11.90;99.90;;;;;;5051296;28;20041;-73
2022/05/08 00:37:02;;;;;;;12.13;8.95;;;;;;;;;;5050918;28;20140;-73
2022/05/08 00:39:27;;;;;;;15.95;9.77;;;11.50;99.90;;;;;;5050669;28;20035;-73
2022/05/08 00:41:53;;;;;;;19.77;11.07;;;;;;;;;;5051424;28;20036;-72
2022/05/08 00:44:19;;;;;;;16.27;10.07;;;11.60;99.90;;;;;;5052815;28;20465;-73
2022/05/08 00:46:44;;;;;;;18.45;12.05;;;11.60;99.90;;;;;;5051221;28;20036;-73
2022/05/08 00:49:10;;;;;;;11.25;9.98;;;11.60;99.90;;;;;;5050768;28;20075;-73
2022/05/08 00:51:36;;;;;;;17.98;10.10;;;;;;;;;;5052195;28;20021;-73
2022/05/08 00:54:03;;;;;;;10.50;7.90;;;11.60;99.90;;;;;;5056446;28;20033;-72
2022/05/08 00:56:29;;;;;;;12.27;9.05;;;11.70;99.90;;;;;;5053091;28;20029;-72
2022/05/08 00:58:56;;;;;;;14.57;8.63;;;11.60;99.90;;;;;;5051390;28;20049;-73
2022/05/08 01:01:22;;;;;;;12.20;9.23;;;11.50;99.90;;;;;;5050776;28;20048;-73
2022/05/08 01:03:48;;;;;;;16.73;9.98;;;;;;;;;;5050879;28;20025;-73
2022/05/08 01:06:15;;;;;;;16.75;8.52;;;11.50;99.90;;;;;;5050535;28;20021;-73
2022/05/08 01:08:43;;;;;;;16.58;8.13;;;11.40;99.90;;;;;;5050460;28;20290;-73
2022/05/08 01:11:09;;;;;;;15.48;7.65;;;11.90;99.90;;;;;;5050365;28;20021;-73
2022/05/08 01:13:36;;;;;;;19.40;8.45;;;11.40;99.90;;;;;;5050742;28;20028;-73
2022/05/08 01:16:06;;;;;;;15.18;8.35;;;10.20;99.90;;;;;;5048946;28;20049;-73
2022/05/08 01:18:31;;;;;;;17.83;8.13;;;11.20;99.90;;;;;;5050790;28;20060;-72
2022/05/08 01:20:56;;;;;;;11.43;6.28;;;11.30;99.90;;;;;;5050612;28;20033;-73
2022/05/08 01:23:22;;;;;;;13.70;7.03;;;11.40;99.90;;;;;;5049656;28;20025;-72
2022/05/08 01:25:54;;;;;;;14.75;7.75;;;11.30;99.90;;;;;;5049359;28;20615;-73
2022/05/08 01:28:21;;;;;;;23.80;8.63;;;11.20;99.90;;;;;;5048539;28;20071;-73
2022/05/08 01:30:49;;;;;;;18.15;7.88;;;11.20;99.90;;;;;;5050129;28;20028;-72
2022/05/08 01:33:15;;;;;;;17.67;7.38;;;;;;;;;;5049886;28;20029;-73
2022/05/08 01:35:42;;;;;;;20.88;9.25;;;11.00;99.90;;;;;;5050429;28;20040;-73
2022/05/08 01:38:08;;;;;;;19.00;7.68;;;11.10;99.90;;;;;;5048706;28;20385;-74
2022/05/08 01:40:34;;;;;;;17.48;8.20;;;;;;;;;;5050458;28;20040;-73
2022/05/08 01:43:01;;;;;;;21.23;7.05;;;11.00;99.90;;;;;;5049919;28;20021;-72
2022/05/08 01:45:28;;;;;;;17.10;7.38;;;11.00;99.90;;;;;;5050372;28;20033;-73
2022/05/08 01:50:38;;;;;;;19.35;8.50;;;11.20;99.90;;;;;;5050183;28;20044;-74
2022/05/08 01:53:04;;;;;;;15.57;6.65;;;10.90;99.90;;;;;;5050234;28;20076;-73
2022/05/08 01:55:30;;;;;;;19.85;6.32;;;;;;;;;;5050190;28;20045;-73
2022/05/08 01:57:56;;;;;;;20.48;7.63;;;10.90;99.90;;;;;;5052829;28;20530;-73
2022/05/08 02:00:22;;;;;;;16.35;5.45;;;10.90;99.90;;;;;;5053706;28;20115;-72
2022/05/08 02:02:49;;;;;;;14.20;5.30;;;10.80;99.90;;;;;;5054482;28;20021;-72
2022/05/08 02:05:22;;;;;;;16.85;6.10;;;10.80;99.90;;;;;;5053471;28;20029;-73
2022/05/08 02:07:48;;;;;;;14.27;5.77;;;10.80;99.90;;;;;;5054105;28;20074;-73
2022/05/08 02:10:15;;;;;;;17.80;5.33;;;10.90;99.90;;;;;;5053590;28;20409;-73
2022/05/08 02:12:41;;;;;;;22.43;5.93;;;;;;;;;;5053969;28;20100;-73
2022/05/08 02:15:08;;;;;;;27.52;7.13;;;10.70;99.90;;;;;;5053590;28;20052;-72
2022/05/08 02:17:34;;;;;;;20.60;5.80;;;10.80;99.90;;;;;;5053569;28;20113;-73
2022/05/08 02:20:00;;;;;;;19.70;6.63;;;;;;;;;;5052792;28;20061;-73
2022/05/08 02:22:26;;;;;;;16.73;4.25;;;10.70;99.90;;;;;;5053931;28;20813;-72
2022/05/08 02:24:52;;;;;;;21.40;5.90;;;;;;;;;;5053531;28;20067;-73
2022/05/08 02:27:18;;;;;;;16.60;5.13;;;10.70;99.90;;;;;;5053441;28;20630;-72
2022/05/08 02:29:48;;;;;;;20.60;5.75;;;10.60;99.90;;;;;;5053479;28;20029;-73
2022/05/08 02:32:14;;;;;;;23.27;6.30;;;;;;;;;;5053473;28;20095;-72
2022/05/08 02:34:40;;;;;;;16.40;4.97;;;10.60;99.90;;;;;;5053084;28;20111;-72
2022/05/08 02:37:06;;;;;;;20.08;5.78;;;;;;;;;;5053088;28;20045;-72
2022/05/08 02:39:32;;;;;;;24.30;5.90;;;10.70;99.90;;;;;;5053269;28;20029;-73
2022/05/08 02:41:58;;;;;;;18.80;5.75;;;;;;;;;;5053385;28;20422;-72
2022/05/08 02:44:23;;;;;;;19.08;5.68;;;10.60;99.90;;;;;;5053286;28;20024;-73
2022/05/08 02:46:49;;;;;;;21.83;6.47;;;;;;;;;;5053330;28;20033;-72
2022/05/08 02:49:15;;;;;;;19.70;5.18;;;10.30;99.90;;;;;;5052604;28;20048;-73
2022/05/08 02:51:41;;;;;;;23.77;7.05;;;;;;;;;;5053122;28;20032;-72
2022/05/08 02:54:07;;;;;;;17.17;4.60;;;10.30;99.90;;;;;;5052958;28;20359;-72
2022/05/08 02:59:16;;;;;;;20.83;6.15;;;10.30;99.90;;;;;;5052831;28;20025;-72
2022/05/08 03:01:42;;;;;;;21.10;4.80;;;;;;;;;;5052795;28;20033;-72
2022/05/08 03:04:08;;;;;;;23.45;5.35;;;9.80;99.90;;;;;;5052197;28;20421;-72
2022/05/08 03:06:34;;;;;;;20.63;4.63;;;10.30;99.90;;;;;;5058733;28;20024;-72
2022/05/08 03:08:59;;;;;;;14.97;4.90;;;10.10;99.90;;;;;;5059381;28;20100;-72
2022/05/08 03:11:25;;;;;;;21.87;5.60;;;10.20;99.90;;;;;;5052960;28;20086;-73
2022/05/08 03:13:51;;;;;;;23.50;6.27;;;10.10;99.90;;;;;;5052863;28;20021;-72
2022/05/08 03:16:17;;;;;;;16.73;5.55;;;10.10;99.90;;;;;;5052381;28;20144;-72
2022/05/08 03:18:45;;;;;;;23.50;5.67;;;10.10;99.90;;;;;;5056150;28;20048;-72
2022/05/08 03:21:12;;;;;;;19.47;5.63;;;10.20;99.90;;;;;;5056076;28;20116;-72
2022/05/08 03:23:38;;;;;;;14.77;5.40;;;9.90;99.90;;;;;;5052752;28;20025;-72
2022/05/08 03:26:06;;;;;;;20.00;6.27;;;10.00;99.90;;;;;;5052595;28;20040;-72
2022/05/08 03:28:33;;;;;;;13.87;4.27;;;10.00;99.90;;;;;;5052603;28;20033;-72
2022/05/08 03:30:59;;;;;;;13.90;4.60;;;;;;;;;;5052454;28;20029;-72
2022/05/08 03:33:36;;;;;;;20.50;4.07;;;9.80;99.90;;;;;;5052530;28;20466;-72
2022/05/08 03:36:02;;;;;;;18.53;8.10;;;9.70;99.90;;;;;;5051870;28;20045;-72
2022/05/08 03:38:28;;;;;;;22.87;5.27;;;9.90;99.90;;;;;;5052324;28;20029;-72
2022/05/08 03:40:54;;;;;;;21.00;5.07;;;9.80;99.90;;;;;;5052252;28;20043;-72
2022/05/08 03:43:21;;;;;;;20.40;5.17;;;9.80;99.90;;;;;;5052086;28;20418;-72
2022/05/08 03:45:50;;;;;;;17.23;4.13;;;9.70;99.90;;;;;;5052333;28;20075;-72
2022/05/08 03:48:19;;;;;;;16.77;5.07;;;9.70;99.90;;;;;;5050114;28;20025;-72
2022/05/08 03:50:45;;;;;;;21.93;5.33;;;9.80;99.90;;;;;;5052224;28;20032;-72
2022/05/08 03:53:11;;;;;;;15.07;4.43;;;9.70;99.90;;;;;;5051752;28;20029;-72
2022/05/08 03:55:37;;;;;;;18.07;4.60;;;;;;;;;;5051972;28;20032;-72
2022/05/08 03:58:03;;;;;;;17.70;5.33;;;10.20;99.90;;;;;;5051443;28;20029;-72
2022/05/08 04:00:29;;;;;;;24.80;5.50;;;9.50;99.90;;;;;;5051720;28;20040;-72
2022/05/08 04:02:55;;;;;;;21.70;5.20;;;9.50;99.90;;;;;;5051363;28;20029;-72
2022/05/08 04:05:21;;;;;;;15.70;6.43;;;9.50;99.90;;;;;;5050044;28;20561;-73
2022/05/08 04:07:46;;;;;;;28.03;5.43;;;9.50;99.90;;;;;;5051848;28;20025;-72
2022/05/08 04:10:15;;;;;;;23.07;5.23;;;9.20;99.90;;;;;;5051485;28;20029;-72
2022/05/08 04:12:44;;;;;;;20.03;5.03;;;9.40;99.90;;;;;;5051804;28;20029;-72
2022/05/08 04:16:15;;;;;;;33.73;6.20;;;9.40;99.90;;;;;;5051139;28;20045;-72
2022/05/08 04:17:56;;;;;;;21.47;5.13;;;9.50;99.90;;;;;;5051287;28;20362;-73
2022/05/08 04:20:21;;;;;;;15.90;4.90;;;9.20;99.90;;;;;;5049406;28;20078;-72
2022/05/08 04:25:32;;;;;;;23.83;5.30;;;;;;;;;;5051694;28;20032;-72
2022/05/08 04:27:58;;;;;;;18.23;4.83;;;;;;;;;;5051348;28;20029;-73
2022/05/08 04:30:24;;;;;;;18.20;4.97;;;;;;;;;;5050782;28;20025;-72
2022/05/08 04:32:49;;;;;;;18.47;5.40;;;9.20;99.90;;;;;;5051155;28;20029;-72
2022/05/08 04:35:15;;;;;;;24.77;4.90;;;9.10;99.90;;;;;;5050935;28;20087;-72
2022/05/08 04:37:40;;;;;;;18.40;4.73;;;9.20;99.90;;;;;;5051281;28;20025;-72
2022/05/08 04:40:07;;;;;;;15.30;4.13;;;9.10;99.90;;;;;;5050786;28;20037;-72
2022/05/08 04:42:33;;;;;;;20.97;6.67;;;;;;;;;;5051179;28;20020;-72
2022/05/08 04:44:59;;;;;;;21.33;5.07;;;;;;;;;;5050419;28;20083;-72
2022/05/08 04:47:25;;;;;;;23.37;5.83;;;9.10;99.90;;;;;;5051157;28;20029;-72
2022/05/08 04:49:51;;;;;;;18.07;5.40;;;9.10;99.90;;;;;;5051165;28;20037;-72
2022/05/08 04:52:17;;;;;;;18.97;5.47;;;9.00;99.90;;;;;;5050695;28;20381;-72
2022/05/08 04:54:43;;;;;;;17.73;4.77;;;;;;;;;;5050289;28;20033;-72
2022/05/08 04:57:08;;;;;;;26.23;4.90;;;9.10;99.90;;;;;;5050703;28;20029;-72
2022/05/08 04:59:34;;;;;;;22.23;4.93;;;;;;;;;;5050451;28;20393;-72
2022/05/08 05:02:02;;;;;;;19.20;4.33;;;8.90;99.90;;;;;;5050661;28;20454;-72
2022/05/08 05:04:28;;;;;;;17.70;5.70;;;9.00;99.90;;;;;;5050818;28;20017;-72
2022/05/08 05:06:53;;;;;;;20.77;4.77;;;;;;;;;;5050835;28;20047;-72
2022/05/08 05:09:19;;;;;;;17.07;4.83;;;9.60;99.90;;;;;;5050349;28;20108;-72
2022/05/08 05:11:44;;;;;;;21.40;5.27;;;9.20;99.90;;;;;;5050968;28;20067;-72
2022/05/08 05:14:10;;;;;;;27.40;5.63;;;9.30;99.90;;;;;;5049706;28;20040;-72
2022/05/08 05:16:35;;;;;;;27.67;6.23;;;9.30;99.90;;;;;;5049307;28;20448;-72
2022/05/08 05:19:01;;;;;;;25.60;5.67;;;;;;;;;;5050439;28;20052;-72
2022/05/08 05:21:27;;;;;;;16.73;4.93;;;9.10;99.90;;;;;;5050691;28;20481;-73
2022/05/08 05:23:52;;;;;;;17.50;5.07;;;9.30;99.90;;;;;;5050575;28;20025;-73
2022/05/08 05:26:18;;;;;;;29.70;7.03;;;9.20;99.90;;;;;;5050332;28;20025;-72
2022/05/08 05:28:44;;;;;;;15.07;4.23;;;9.30;99.90;;;;;;5050247;28;20452;-73
2022/05/08 05:31:12;;;;;;;11.60;4.80;;;;;;;;;;5056354;28;20029;-72
2022/05/08 05:33:38;;;;;;;22.73;5.33;;;9.40;99.90;;;;;;5059017;28;20028;-72
2022/05/08 05:36:04;;;;;;;22.37;4.63;;;;;;;;;;5055257;28;20033;-73
2022/05/08 05:38:29;;;;;;;21.90;4.47;;;9.50;99.90;;;;;;5053414;28;20043;-73
2022/05/08 05:40:55;;;;;;;26.03;5.77;;;9.50;99.90;;;;;;5054813;28;20037;-72
2022/05/08 05:43:20;;;;;;;20.27;5.47;;;9.70;99.90;;;;;;5059003;28;20397;-72
2022/05/08 05:47:49;;;;;;;20.77;5.07;;;;;;;;;;5057017;28;20033;-72
2022/05/08 05:48:35;;;;;;;21.17;5.37;;;9.60;99.90;;;;;;5054432;28;20044;-72
2022/05/08 05:51:01;;;;;;;21.57;6.70;;;;;;;;;;5053437;28;20485;-72
2022/05/08 05:53:26;;;;;;;14.47;3.73;;;9.70;99.90;;;;;;5054418;28;20106;-72
2022/05/08 05:55:54;;;;;;;13.63;4.17;;;9.90;99.90;;;;;;5054083;28;20120;-72
2022/05/08 05:58:19;;;;;;;17.47;4.37;;;;;;;;;;5053587;28;20067;-72
2022/05/08 06:00:45;;;;;;;21.97;4.30;;;10.00;99.90;;;;;;5054255;28;20478;-73
2022/05/08 06:03:10;;;;;;;20.20;4.40;;;10.00;99.90;;;;;;5054077;28;20277;-72
2022/05/08 06:05:36;;;;;;;20.37;4.33;;;10.10;99.90;;;;;;5053868;28;20043;-72
2022/05/08 06:08:01;;;;;;;20.70;4.90;;;10.10;99.90;;;;;;5053737;28;20078;-72
2022/05/08 06:10:28;;;;;;;16.20;4.10;;;;;;;;;;5054047;28;20053;-73
2022/05/08 06:12:53;;;;;;;17.73;4.37;;;10.10;99.90;;;;;;5044888;28;20029;-73
2022/05/08 06:15:18;;;;;;;14.27;3.90;;;10.20;99.90;;;;;;5039477;28;20058;-72
2022/05/08 06:17:45;;;;;;;22.83;4.33;;;10.40;99.90;;;;;;5036852;28;20080;-72
2022/05/08 06:20:11;;;;;;;19.43;3.70;;;;;;;;;;5033641;28;20386;-72
2022/05/08 06:22:37;;;;;;;16.47;3.97;;;10.40;99.90;;;;;;5034078;28;20424;-72
2022/05/08 06:25:03;;;;;;;15.30;3.37;;;10.50;99.90;;;;;;5033602;28;20036;-72
2022/05/08 06:27:29;;;;;;;22.20;4.57;;;10.40;99.90;;;;;;5033238;28;20029;-72
2022/05/08 06:29:55;;;;;;;16.23;4.30;;;;;;;;;;5033721;28;20488;-72
2022/05/08 06:32:21;;;;;;;18.53;4.20;;;10.70;99.90;;;;;;5035471;28;20029;-72
2022/05/08 06:34:47;;;;;;;15.30;3.77;;;10.80;99.90;;;;;;5053188;28;20477;-73
2022/05/08 06:37:13;;;;;;;16.07;4.67;;;10.80;99.90;;;;;;5053146;28;20091;-72
2022/05/08 06:39:38;;;;;;;14.57;3.50;;;10.80;99.90;;;;;;5053302;28;20465;-73
2022/05/08 06:42:05;;;;;;;11.27;3.47;;;10.90;99.90;;;;;;5052368;28;20040;-73
2022/05/08 06:44:31;;;;;;;17.20;4.00;;;10.80;99.90;;;;;;5053147;28;20036;-72
2022/05/08 06:46:56;;;;;;;15.07;3.03;;;11.00;99.90;;;;;;5053361;28;20029;-73
2022/05/08 06:49:22;;;;;;;12.13;3.27;;;;;;;;;;5053035;28;20032;-73
2022/05/08 06:51:48;;;;;;;10.03;3.47;;;11.00;99.90;;;;;;5053252;28;20036;-73
2022/05/08 06:54:13;;;;;;;14.57;3.20;;;;;;;;;;5052653;28;20076;-73
2022/05/08 06:56:41;;;;;;;16.70;3.87;;;;;;;;;;5052374;28;20512;-73
2022/05/08 07:01:51;;;;;;;;;;;12.10;99.90;;;;;;5053606;28;20031;-72
2022/05/08 07:04:17;;;;;;;17.23;4.67;;;;;;;;;;5053017;28;19991;-73
2022/05/08 07:06:43;;;;;;;13.60;2.80;;;;;;;;;;5052915;28;20075;-73
2022/05/08 07:09:08;;;;;;;15.23;3.33;;;11.10;99.90;;;;;;5052457;28;20028;-72
2022/05/08 07:11:36;;;;;;;20.75;5.30;;;;;;;;;;5052475;28;20065;-73
2022/05/08 07:14:02;;;;;;;13.37;3.00;;;11.30;99.90;;;;;;5052547;28;20035;-73
2022/05/08 07:16:28;;;;;;;13.32;3.10;;;11.60;99.90;;;;;;5052475;28;20136;-73
2022/05/08 07:18:54;;;;;;;18.97;4.57;;;11.50;99.90;;;;;;5052980;28;20048;-73
2022/05/08 07:21:20;;;;;;;12.75;3.75;;;11.50;99.90;;;;;;5052478;28;20063;-73
2022/05/08 07:23:48;;;;;;;11.70;3.33;;;11.70;98.30;;;;;;5052640;28;20373;-73
2022/05/08 07:26:14;;;;;;;14.40;4.05;;;11.80;99.90;;;;;;5051957;28;20025;-73
2022/05/08 07:28:41;;;;;;;13.20;2.92;;;;;;;;;;5052488;28;20556;-72
2022/05/08 07:31:06;;;;;;;13.70;2.97;;;11.90;99.90;;;;;;5051987;28;20037;-72
2022/05/08 07:33:35;;;;;;;13.40;2.88;;;;;;;;;;5052243;28;20043;-72
2022/05/08 07:36:20;;;;;;;10.67;2.47;;;12.00;99.90;;;;;;5052190;28;20044;-72
2022/05/08 07:38:47;;;;;;;11.95;4.00;;;12.10;99.90;;;;;;5048869;28;20025;-73
2022/05/08 07:41:15;;;;;;;9.95;2.80;;;11.80;99.90;;;;;;5052055;28;20033;-72
2022/05/08 07:43:44;;;;;;;11.45;2.88;;;12.20;99.90;;;;;;5052357;28;20090;-73
2022/05/08 07:46:10;;;;;;;12.13;3.08;;;11.90;99.90;;;;;;5051952;28;20048;-73
2022/05/08 07:48:36;;;;;;;13.50;2.92;;;12.30;99.90;;;;;;5052158;28;20501;-73
2022/05/08 07:51:02;;;;;;;15.20;3.65;;;;;;;;;;5051503;28;20039;-74
2022/05/08 07:53:32;;;;;;;8.98;2.30;;;13.00;99.90;;;;;;5051571;28;20048;-73
2022/05/08 07:55:58;;;;;;;17.40;2.60;;;;;;;;;;5043255;28;20179;-74
2022/05/08 07:58:28;;;;;;;14.45;3.20;;;12.90;98.30;;;;;;5032703;28;20022;-73
2022/05/08 08:00:55;;;;;;;14.10;3.03;;;12.90;99.90;;;;;;5033169;28;20040;-73
2022/05/08 08:03:24;;;;;;;11.57;3.42;;;12.70;99.90;;;;;;5031671;28;20025;-73
2022/05/08 08:05:51;;;;;;;8.85;3.00;;;12.50;99.90;;;;;;5031960;28;20071;-72
2022/05/08 08:08:17;;;;;;;8.02;2.22;;;12.80;99.90;;;;;;5031462;28;20072;-72
2022/05/08 08:10:44;;;;;;;13.30;3.15;;;12.70;99.90;;;;;;5032275;28;20421;-73
2022/05/08 08:13:09;;;;;;;10.68;2.58;;;12.90;99.90;;;;;;5045765;28;20060;-73
2022/05/08 08:15:36;;;;;;;8.98;2.67;;;13.10;99.90;;;;;;5051277;28;20079;-72
2022/05/08 08:18:02;;;;;;;10.75;2.30;;;;;;;;;;5051178;28;20573;-73
2022/05/08 08:20:27;;;;;;;7.35;2.78;;;;;;;;;;5049877;28;20107;-73
2022/05/08 08:22:53;;;;;;;9.45;2.72;;;13.10;99.90;;;;;;5047732;28;20096;-73
2022/05/08 08:25:20;;;;;;;14.23;3.03;;;;;;;;;;5051062;28;20017;-73
2022/05/08 08:27:46;;;;;;;11.20;2.72;;;13.20;99.90;;;;;;5051472;28;20458;-73
2022/05/08 08:30:11;;;;;;;9.85;2.58;;;13.40;99.90;;;;;;5049877;28;20055;-73
2022/05/08 08:32:37;;;;;;;9.20;2.33;;;13.20;99.90;;;;;;5051458;28;20120;-72
2022/05/08 08:35:03;;;;;;;8.88;2.10;;;13.40;94.60;;;;;;5050880;28;20049;-72
2022/05/08 08:37:28;;;;;;;11.38;2.70;;;13.50;99.90;;;;;;5050903;28;20371;-73
2022/05/08 08:39:54;;;;;;;9.43;2.42;;;13.40;99.90;;;;;;5050554;28;20024;-73
2022/05/08 08:42:28;;;;;;;12.40;2.88;;;13.60;93.60;;;;;;5050865;28;20021;-72
2022/05/08 08:47:52;;;;;;;10.73;2.78;;;13.70;99.90;;;;;;5047746;28;20453;-73
2022/05/08 08:50:19;;;;;;;14.82;3.60;;;13.70;99.90;;;;;;5050425;28;20025;-73
2022/05/08 08:52:48;;;;;;;6.43;2.97;;;13.70;99.90;;;;;;5049407;28;20040;-72
2022/05/08 08:55:16;;;;;;;9.70;2.38;;;13.70;99.60;;;;;;5050414;28;20059;-73
2022/05/08 08:57:42;;;;;;;9.45;2.63;;;13.50;99.90;;;;;;5041349;28;20501;-73
2022/05/08 09:00:09;;;;;;;11.20;2.22;;;13.80;99.90;;;;;;5050652;28;20091;-72
2022/05/08 09:02:35;;;;;;;10.57;2.75;;;;;;;;;;5050493;28;20025;-72
2022/05/08 09:05:07;;;;;;;11.88;2.38;;;13.90;99.90;;;;;;5050636;28;20033;-72
2022/05/08 09:07:45;;;;;;;6.03;3.17;;;13.70;99.40;;;;;;5050188;28;20039;-73
2022/05/08 09:10:16;;;;;;;10.75;2.58;;;13.80;91.80;;;;;;5036284;28;20347;-73
2022/05/08 09:12:44;;;;;;;11.20;2.53;;;14.30;96.60;;;;;;5034108;28;20059;-73
2022/05/08 09:15:17;;;;;;;9.23;2.70;;;14.20;98.70;;;;;;5047999;28;20148;-73
2022/05/08 09:17:44;;;;;;;13.23;2.47;;;14.20;98.70;;;;;;5049475;28;20049;-72
2022/05/08 09:20:29;;;;;;;10.38;2.20;;;13.90;94.00;;;;;;5048872;28;20094;-72
2022/05/08 09:23:07;;;;;;;10.60;3.25;;;14.00;91.20;;;;;;5048026;28;20473;-73
2022/05/08 09:25:45;;;;;;;9.13;2.90;;;14.10;98.90;;;;;;5046969;28;20473;-72
2022/05/08 09:28:13;;;;;;;5.38;1.92;;;14.70;91.90;;;;;;5049070;28;20078;-73
2022/05/08 09:30:54;;;;;;;7.47;2.13;;;14.40;93.90;;;;;;5044440;28;20055;-72
2022/05/08 09:33:26;;;;;;;9.77;2.90;;;14.10;98.20;;;;;;5030406;28;20040;-72
2022/05/08 09:35:52;;;;;;;10.23;2.95;;;14.40;98.40;;;;;;5029974;28;20048;-72
2022/05/08 09:38:18;;;;;;;8.60;3.05;;;;;;;;;;5030359;28;20478;-73
2022/05/08 09:40:45;;;;;;;11.75;3.35;;;14.60;98.30;;;;;;5040694;28;20079;-72
2022/05/08 09:43:28;;;;;;;6.65;1.92;;;16.00;90.90;;;;;;5039963;28;20033;-72
2022/05/08 09:45:57;;;;;;;9.45;2.83;;;14.50;90.60;;;;;;5046991;28;20043;-72
2022/05/08 09:48:25;;;;;;;5.80;2.13;;;14.60;90.80;;;;;;5049737;28;20097;-72
2022/05/08 09:50:55;;;;;;;10.48;3.20;;;14.80;97.00;;;;;;5049960;28;20021;-72
2022/05/08 09:53:21;;;;;;;5.82;2.00;;;14.80;97.20;;;;;;5050151;28;20029;-72
2022/05/08 09:55:47;;;;;;;6.95;2.03;;;14.60;88.60;;;;;;5050030;28;20436;-72
2022/05/08 09:58:13;;;;;;;11.13;2.47;;;;;;;;;;5049570;28;20025;-72
2022/05/08 10:00:40;;;;;;;8.38;2.80;;;14.70;96.60;;;;;;5050100;28;20032;-72
2022/05/08 10:03:09;;;;;;;11.55;2.92;;;14.80;95.60;;;;;;5049650;28;20021;-72
2022/05/08 10:05:37;;;;;;;14.80;3.35;;;14.60;95.50;;;;;;5049800;28;20031;-72
2022/05/08 10:08:03;;;;;;;8.40;2.67;;;14.60;92.00;;;;;;5049826;28;20144;-72
2022/05/08 10:13:53;;;;;;;14.43;2.33;;;14.70;95.90;;;;;;5050065;28;20032;-72
2022/05/08 10:16:47;;;;;;;10.38;3.13;;;14.90;90.10;;;;;;5049551;28;20144;-72
2022/05/08 10:19:18;;;;;;;8.80;2.40;;;15.10;95.50;;;;;;5052538;28;20029;-72
2022/05/08 10:21:59;;;;;;;9.30;2.30;;;15.10;88.50;;;;;;5053669;28;20405;-72
2022/05/08 10:24:36;;;;;;;5.53;2.28;;;15.40;94.30;;;;;;5054364;28;20033;-72
2022/05/08 10:27:17;;;;;;;7.65;1.73;;;15.30;94.00;;;;;;5053471;28;20060;-72
2022/05/08 10:30:02;;;;;;;9.32;2.50;;;15.20;93.90;;;;;;5052968;28;20044;-72
2022/05/08 10:32:28;;;;;;;9.05;3.20;;;15.20;94.30;;;;;;5037273;28;20033;-72
2022/05/08 10:35:25;;;;;;;9.50;2.33;;;15.30;94.50;;;;;;5033751;28;20041;-72
2022/05/08 10:38:00;;;;;;;6.57;2.70;;;15.40;93.90;;;;;;5042259;28;20080;-72
2022/05/08 10:40:26;;;;;;;8.02;2.25;;;15.40;93.10;;;;;;5037609;28;20086;-72
2022/05/08 10:42:57;;;;;;;9.95;2.72;;;15.30;94.00;;;;;;5049082;28;20112;-72
2022/05/08 10:45:32;;;;;;;10.35;2.58;;;17.00;82.80;;;;;;5032072;28;20529;-72
2022/05/08 10:47:57;;;;;;;6.72;2.15;;;15.50;93.90;;;;;;5049322;28;20048;-72
2022/05/08 10:50:23;;;;;;;7.65;1.98;;;15.40;94.40;;;;;;5052219;28;20462;-72
2022/05/08 10:52:50;;;;;;;10.02;2.63;;;15.20;94.20;;;;;;5052243;28;20437;-72
2022/05/08 10:55:17;;;;;;;3.10;1.17;;;15.40;82.70;;;;;;5034654;28;20041;-72
2022/05/08 10:57:45;;;;;;;9.75;2.58;;;15.50;83.30;;;;;;5047323;28;20029;-72
2022/05/08 11:00:15;;;;;;;5.90;1.95;;;15.60;83.00;;;;;;5052621;28;20108;-72
2022/05/08 11:02:43;;;;;;;7.40;2.28;;;15.50;83.00;;;;;;5051326;28;20063;-72
2022/05/08 11:05:10;;;;;;;8.18;2.33;;;15.50;82.50;;;;;;5052665;28;20050;-72
2022/05/08 11:07:39;;;;;;;5.80;1.95;;;15.60;82.60;;;;;;5051904;28;20423;-72
2022/05/08 11:10:15;;;;;;;4.70;1.67;;;15.30;93.70;;;;;;5052645;28;20028;-72
2022/05/08 11:13:00;;;;;;;6.03;2.15;;;15.80;93.80;;;;;;5052635;28;20021;-72
2022/05/08 11:15:30;;;;;;;8.13;2.38;;;15.70;91.00;;;;;;5052461;28;20490;-71
2022/05/08 11:18:10;;;;;;;6.40;2.00;;;15.70;80.40;;;;;;5052233;28;20032;-72
2022/05/08 11:20:43;;;;;;;9.52;1.73;;;15.80;82.40;;;;;;5040840;28;20033;-73
2022/05/08 11:23:13;;;;;;;8.02;2.42;;;15.80;93.50;;;;;;5051580;28;20036;-72
2022/05/08 11:25:39;;;;;;;6.88;2.22;;;15.40;93.50;;;;;;5048995;28;20028;-72
2022/05/08 11:28:05;;;;;;;10.13;2.90;;;;;;;;;;5037332;28;20110;-71
2022/05/08 11:30:32;;;;;;;8.52;2.10;;;;;;;;;;5030720;28;20030;-71
2022/05/08 11:36:05;;;;;;;9.57;2.67;;;15.90;92.80;;;;;;5049617;28;20460;-72
2022/05/08 11:38:51;;;;;;;3.90;1.60;;;15.80;79.10;;;;;;5049158;28;20062;-72
2022/05/08 11:41:20;;;;;;;4.55;2.15;;;16.20;92.60;;;;;;5051525;28;20078;-72
2022/05/08 11:43:48;;;;;;;5.43;2.03;;;16.20;92.30;;;;;;5052085;28;20054;-73
2022/05/08 11:46:15;;;;;;;8.50;2.25;;;15.80;90.70;;;;;;5050485;28;20028;-73
2022/05/08 11:48:49;;;;;;;7.35;2.20;;;16.10;92.00;;;;;;5052155;28;20104;-73
2022/05/08 11:51:21;;;;;;;7.00;2.75;;;16.00;79.50;;;;;;5051765;28;20056;-73
2022/05/08 11:53:49;;;;;;;6.32;1.70;;;16.10;80.80;;;;;;5052106;28;20033;-72
2022/05/08 11:56:29;;;;;;;5.93;1.40;;;15.90;92.30;;;;;;5050620;28;20048;-72
2022/05/08 11:58:56;;;;;;;5.65;1.60;;;16.20;92.10;;;;;;5052184;28;20065;-72
2022/05/08 12:01:23;;;;;;;9.27;2.42;;;16.00;92.00;;;;;;5051267;28;20125;-72
2022/05/08 12:03:49;;;;;;;6.07;2.03;;;;;;;;;;5051371;28;20119;-72
2022/05/08 12:06:15;;;;;;;7.70;1.85;;;16.40;91.80;;;;;;5043062;28;20474;-72
2022/05/08 12:08:41;;;;;;;4.65;1.58;;;16.10;91.30;;;;;;5051556;28;20036;-72
2022/05/08 12:11:06;;;;;;;5.10;1.40;;;16.10;91.00;;;;;;5051146;28;20108;-72
2022/05/08 12:13:34;;;;;;;2.95;0.90;;;16.40;91.00;;;;;;5048450;28;20021;-72
2022/05/08 12:16:18;;;;;;;5.75;1.63;;;16.50;90.90;;;;;;5049994;28;20052;-72
2022/05/08 12:19:15;;;;;;;6.05;1.92;;;16.60;90.70;;;;;;5051563;28;20029;-71
2022/05/08 12:21:46;;;;;;;3.83;1.58;;;16.50;90.80;;;;;;5051548;28;20466;-72
2022/05/08 12:24:14;;;;;;;4.60;1.58;;;16.70;90.50;;;;;;5051496;28;20036;-73
2022/05/08 12:26:40;;;;;;;4.07;1.38;;;;;;;;;;5051458;28;20060;-73
2022/05/08 12:29:26;;;;;;;4.75;2.17;;;16.50;90.60;;;;;;5050777;28;20029;-74
2022/05/08 12:31:52;;;;;;;6.97;1.40;;;16.60;90.70;;;;;;5050864;28;20052;-73
2022/05/08 12:34:21;;;;;;;6.30;1.80;;;17.00;90.60;;;;;;5048741;28;20033;-72
2022/05/08 12:36:48;;;;;;;4.28;1.55;;;16.90;90.70;;;;;;5046631;28;20604;-73
2022/05/08 12:39:15;;;;;;;8.45;1.83;;;17.10;90.20;;;;;;5050277;28;20021;-73
2022/05/08 12:41:40;;;;;;;4.25;1.38;;;17.10;89.70;;;;;;5050793;28;20032;-72
2022/05/08 12:44:07;;;;;;;4.22;1.65;;;16.90;89.10;;;;;;5049810;28;20056;-73
2022/05/08 12:46:34;;;;;;;6.28;1.20;;;17.30;89.10;;;;;;5051909;28;20029;-72
2022/05/08 12:49:03;;;;;;;6.78;1.63;;;17.20;89.00;;;;;;5050854;28;20106;-71
2022/05/08 12:51:30;;;;;;;5.88;1.15;;;17.10;79.40;;;;;;5051427;28;20025;-72
2022/05/08 12:53:56;;;;;;;8.30;2.05;;;17.40;88.30;;;;;;5045680;28;20434;-72
2022/05/08 12:56:21;;;;;;;9.20;1.88;;;17.50;88.10;;;;;;5050746;28;20120;-72
2022/05/08 13:01:31;;;;;;;6.63;1.67;;;17.30;86.90;;;;;;5050391;28;20040;-72
2022/05/08 13:03:56;;;;;;;8.35;1.98;;;17.70;87.70;;;;;;5050773;28;20033;-72
2022/05/08 13:06:22;;;;;;;3.78;1.33;;;17.50;87.60;;;;;;5049164;28;20033;-72
2022/05/08 13:08:47;;;;;;;5.85;1.50;;;17.70;87.20;;;;;;5050571;28;20070;-72
2022/05/08 13:11:13;;;;;;;5.97;1.42;;;17.90;87.20;;;;;;5047355;28;20036;-71
2022/05/08 13:13:39;;;;;;;2.40;0.85;;;;;;;;;;5050197;28;20467;-72
2022/05/08 13:16:05;;;;;;;3.22;1.27;;;17.60;68.90;;;;;;5049113;28;20139;-71
2022/05/08 13:18:30;;;;;;;3.72;1.10;;;17.50;86.20;;;;;;5050790;28;20028;-72
2022/05/08 13:20:56;;;;;;;4.55;1.13;;;17.80;86.30;;;;;;5050610;28;20032;-71
2022/05/08 13:23:21;;;;;;;3.35;1.10;;;18.30;86.40;;;;;;5050150;28;20155;-70
2022/05/08 13:25:47;;;;;;;8.73;1.20;;;18.10;86.20;;;;;;5050636;28;20036;-72